Terminal Aerodrome Forecast
Issued by NWS Jackson, MS

Home | Current Version | Previous Version | Text Only | Print | Product List | Glossary On
Versions: 1 2 3 4 5 6 7 8 9 10 11 12 13 14 15 16 17
000
FTUS44 KJAN 311700
TAFHBG
TAF
KHBG 311720Z 3118/0118 32011G19KT P6SM SKC
     FM312200 34015G25KT P6SM SCT040
     FM010400 34009KT P6SM SKC
     FM011600 35015G22KT P6SM SKC=

USA.gov is the U.S. government's official web portal to all federal, state and local government web resources and services.